sensor_id;sensor_type;location;lat;lon;timestamp;pressure;altitude;pressure_sealevel;temperature;humidity
77019;BME280;66044;53.142;17.962;2023-09-08T00:00:13;102006.33;;;16.52;72.07
77019;BME280;66044;53.142;17.962;2023-09-08T00:03:00;102006.25;;;16.50;72.16
77019;BME280;66044;53.142;17.962;2023-09-08T00:05:26;102004.05;;;16.48;72.00
77019;BME280;66044;53.142;17.962;2023-09-08T00:07:53;102006.45;;;16.45;72.11
77019;BME280;66044;53.142;17.962;2023-09-08T00:10:19;102003.25;;;16.42;71.99
77019;BME280;66044;53.142;17.962;2023-09-08T00:12:45;102004.64;;;16.40;72.22
77019;BME280;66044;53.142;17.962;2023-09-08T00:15:12;102004.23;;;16.37;72.13
77019;BME280;66044;53.142;17.962;2023-09-08T00:17:38;102001.42;;;16.35;72.30
77019;BME280;66044;53.142;17.962;2023-09-08T00:20:06;101999.02;;;16.33;72.64
77019;BME280;66044;53.142;17.962;2023-09-08T00:22:37;101996.91;;;16.30;72.39
77019;BME280;66044;53.142;17.962;2023-09-08T00:25:05;101995.27;;;16.28;72.62
77019;BME280;66044;53.142;17.962;2023-09-08T00:27:32;101997.35;;;16.25;72.49
77019;BME280;66044;53.142;17.962;2023-09-08T00:29:58;101997.88;;;16.22;72.52
77019;BME280;66044;53.142;17.962;2023-09-08T00:32:25;101999.64;;;16.20;72.45
77019;BME280;66044;53.142;17.962;2023-09-08T00:34:51;101997.96;;;16.17;72.51
77019;BME280;66044;53.142;17.962;2023-09-08T00:37:17;101996.88;;;16.14;72.43
77019;BME280;66044;53.142;17.962;2023-09-08T00:39:44;101998.36;;;16.11;72.42
77019;BME280;66044;53.142;17.962;2023-09-08T00:42:10;101995.16;;;16.08;72.52
77019;BME280;66044;53.142;17.962;2023-09-08T00:44:37;101999.62;;;16.05;72.45
77019;BME280;66044;53.142;17.962;2023-09-08T00:47:04;102000.52;;;16.03;72.65
77019;BME280;66044;53.142;17.962;2023-09-08T00:49:31;102000.30;;;16.00;72.62
77019;BME280;66044;53.142;17.962;2023-09-08T00:51:58;101997.58;;;15.98;72.70
77019;BME280;66044;53.142;17.962;2023-09-08T00:54:25;101996.20;;;15.95;72.58
77019;BME280;66044;53.142;17.962;2023-09-08T00:56:55;101995.73;;;15.93;72.73
77019;BME280;66044;53.142;17.962;2023-09-08T00:59:23;101997.55;;;15.90;72.86
77019;BME280;66044;53.142;17.962;2023-09-08T01:01:51;101998.01;;;15.87;72.69
77019;BME280;66044;53.142;17.962;2023-09-08T01:04:18;101993.90;;;15.85;72.83
77019;BME280;66044;53.142;17.962;2023-09-08T01:06:45;101989.86;;;15.82;72.82
77019;BME280;66044;53.142;17.962;2023-09-08T01:09:12;101987.80;;;15.79;72.89
77019;BME280;66044;53.142;17.962;2023-09-08T01:11:39;101986.80;;;15.77;72.69
77019;BME280;66044;53.142;17.962;2023-09-08T01:14:05;101987.52;;;15.74;72.53
77019;BME280;66044;53.142;17.962;2023-09-08T01:16:32;101989.52;;;15.72;73.02
77019;BME280;66044;53.142;17.962;2023-09-08T01:18:59;101994.55;;;15.70;72.69
77019;BME280;66044;53.142;17.962;2023-09-08T01:21:51;101992.80;;;15.67;72.78
77019;BME280;66044;53.142;17.962;2023-09-08T01:24:43;101991.45;;;15.64;72.94
77019;BME280;66044;53.142;17.962;2023-09-08T01:27:18;101989.63;;;15.61;72.95
77019;BME280;66044;53.142;17.962;2023-09-08T01:29:45;101990.54;;;15.59;72.94
77019;BME280;66044;53.142;17.962;2023-09-08T01:32:14;101987.27;;;15.56;73.07
77019;BME280;66044;53.142;17.962;2023-09-08T01:34:40;101987.10;;;15.54;73.01
77019;BME280;66044;53.142;17.962;2023-09-08T01:37:07;101984.48;;;15.51;72.99
77019;BME280;66044;53.142;17.962;2023-09-08T01:39:33;101985.89;;;15.47;72.85
77019;BME280;66044;53.142;17.962;2023-09-08T01:42:00;101984.77;;;15.45;72.70
77019;BME280;66044;53.142;17.962;2023-09-08T01:44:26;101979.48;;;15.42;73.10
77019;BME280;66044;53.142;17.962;2023-09-08T01:46:53;101974.80;;;15.41;73.15
77019;BME280;66044;53.142;17.962;2023-09-08T01:49:23;101975.42;;;15.39;73.07
77019;BME280;66044;53.142;17.962;2023-09-08T01:51:50;101974.01;;;15.37;73.12
77019;BME280;66044;53.142;17.962;2023-09-08T01:54:16;101979.91;;;15.36;73.37
77019;BME280;66044;53.142;17.962;2023-09-08T01:56:43;101977.27;;;15.34;73.31
77019;BME280;66044;53.142;17.962;2023-09-08T01:59:09;101978.44;;;15.32;73.37
77019;BME280;66044;53.142;17.962;2023-09-08T02:01:36;101975.64;;;15.29;73.47
77019;BME280;66044;53.142;17.962;2023-09-08T02:04:03;101975.13;;;15.27;73.46
77019;BME280;66044;53.142;17.962;2023-09-08T02:06:29;101973.54;;;15.25;73.64
77019;BME280;66044;53.142;17.962;2023-09-08T02:08:56;101973.38;;;15.23;73.55
77019;BME280;66044;53.142;17.962;2023-09-08T02:11:22;101975.92;;;15.21;73.48
77019;BME280;66044;53.142;17.962;2023-09-08T02:13:49;101973.44;;;15.20;73.38
77019;BME280;66044;53.142;17.962;2023-09-08T02:16:16;101973.66;;;15.17;73.64
77019;BME280;66044;53.142;17.962;2023-09-08T02:18:43;101973.56;;;15.15;73.57
77019;BME280;66044;53.142;17.962;2023-09-08T02:21:11;101970.28;;;15.12;73.51
77019;BME280;66044;53.142;17.962;2023-09-08T02:23:37;101974.16;;;15.10;73.79
77019;BME280;66044;53.142;17.962;2023-09-08T02:26:04;101973.95;;;15.08;73.67
77019;BME280;66044;53.142;17.962;2023-09-08T02:28:30;101973.94;;;15.07;73.81
77019;BME280;66044;53.142;17.962;2023-09-08T02:30:57;101974.56;;;15.05;73.78
77019;BME280;66044;53.142;17.962;2023-09-08T02:33:23;101974.25;;;15.03;73.89
77019;BME280;66044;53.142;17.962;2023-09-08T02:35:50;101973.17;;;15.01;73.72
77019;BME280;66044;53.142;17.962;2023-09-08T02:38:16;101972.92;;;14.99;73.82
77019;BME280;66044;53.142;17.962;2023-09-08T02:40:43;101972.22;;;14.97;73.61
77019;BME280;66044;53.142;17.962;2023-09-08T02:43:09;101968.14;;;14.95;73.78
77019;BME280;66044;53.142;17.962;2023-09-08T02:45:36;101966.63;;;14.93;73.88
77019;BME280;66044;53.142;17.962;2023-09-08T02:48:03;101963.77;;;14.91;73.93
77019;BME280;66044;53.142;17.962;2023-09-08T02:50:29;101962.75;;;14.89;73.93
77019;BME280;66044;53.142;17.962;2023-09-08T02:52:56;101957.77;;;14.88;73.84
77019;BME280;66044;53.142;17.962;2023-09-08T02:55:22;101961.31;;;14.86;74.02
77019;BME280;66044;53.142;17.962;2023-09-08T02:57:49;101957.70;;;14.83;73.87
77019;BME280;66044;53.142;17.962;2023-09-08T03:00:15;101955.61;;;14.81;73.91
77019;BME280;66044;53.142;17.962;2023-09-08T03:02:42;101954.91;;;14.79;73.72
77019;BME280;66044;53.142;17.962;2023-09-08T03:05:08;101955.25;;;14.78;73.67
77019;BME280;66044;53.142;17.962;2023-09-08T03:07:35;101956.04;;;14.76;73.84
77019;BME280;66044;53.142;17.962;2023-09-08T03:10:03;101953.50;;;14.75;73.65
77019;BME280;66044;53.142;17.962;2023-09-08T03:12:30;101950.45;;;14.74;73.86
77019;BME280;66044;53.142;17.962;2023-09-08T03:14:57;101947.88;;;14.73;73.82
77019;BME280;66044;53.142;17.962;2023-09-08T03:17:23;101948.36;;;14.72;73.69
77019;BME280;66044;53.142;17.962;2023-09-08T03:19:50;101946.07;;;14.69;73.98
77019;BME280;66044;53.142;17.962;2023-09-08T03:22:16;101944.86;;;14.66;73.83
77019;BME280;66044;53.142;17.962;2023-09-08T03:24:42;101944.91;;;14.65;73.79
77019;BME280;66044;53.142;17.962;2023-09-08T03:27:09;101941.98;;;14.64;73.66
77019;BME280;66044;53.142;17.962;2023-09-08T03:29:35;101943.79;;;14.63;73.69
77019;BME280;66044;53.142;17.962;2023-09-08T03:32:03;101944.42;;;14.62;73.60
77019;BME280;66044;53.142;17.962;2023-09-08T03:34:30;101944.08;;;14.60;73.64
77019;BME280;66044;53.142;17.962;2023-09-08T03:36:56;101945.83;;;14.60;73.75
77019;BME280;66044;53.142;17.962;2023-09-08T03:39:23;101943.63;;;14.59;73.76
77019;BME280;66044;53.142;17.962;2023-09-08T03:41:49;101945.52;;;14.58;73.89
77019;BME280;66044;53.142;17.962;2023-09-08T03:44:15;101945.88;;;14.57;73.98
77019;BME280;66044;53.142;17.962;2023-09-08T03:46:42;101946.89;;;14.56;73.85
77019;BME280;66044;53.142;17.962;2023-09-08T03:49:08;101947.69;;;14.55;74.02
77019;BME280;66044;53.142;17.962;2023-09-08T03:51:35;101942.13;;;14.53;73.85
77019;BME280;66044;53.142;17.962;2023-09-08T03:54:01;101949.00;;;14.51;74.05
77019;BME280;66044;53.142;17.962;2023-09-08T03:56:29;101949.48;;;14.50;74.11
77019;BME280;66044;53.142;17.962;2023-09-08T03:58:55;101947.67;;;14.49;73.99
77019;BME280;66044;53.142;17.962;2023-09-08T04:01:22;101944.61;;;14.48;73.93
77019;BME280;66044;53.142;17.962;2023-09-08T04:03:48;101946.36;;;14.47;73.92
77019;BME280;66044;53.142;17.962;2023-09-08T04:06:15;101946.45;;;14.46;73.91
77019;BME280;66044;53.142;17.962;2023-09-08T04:08:41;101947.24;;;14.45;74.01
77019;BME280;66044;53.142;17.962;2023-09-08T04:11:08;101947.13;;;14.44;74.11
77019;BME280;66044;53.142;17.962;2023-09-08T04:13:34;101948.94;;;14.45;74.06
77019;BME280;66044;53.142;17.962;2023-09-08T04:16:01;101948.88;;;14.45;74.11
77019;BME280;66044;53.142;17.962;2023-09-08T04:18:27;101949.66;;;14.45;73.93
77019;BME280;66044;53.142;17.962;2023-09-08T04:20:54;101950.23;;;14.46;74.03
77019;BME280;66044;53.142;17.962;2023-09-08T04:23:20;101951.83;;;14.47;73.84
77019;BME280;66044;53.142;17.962;2023-09-08T04:25:46;101951.45;;;14.49;73.87
77019;BME280;66044;53.142;17.962;2023-09-08T04:28:13;101947.82;;;14.52;73.78
77019;BME280;66044;53.142;17.962;2023-09-08T04:30:39;101951.06;;;14.56;73.81
77019;BME280;66044;53.142;17.962;2023-09-08T04:33:06;101949.77;;;14.60;73.65
77019;BME280;66044;53.142;17.962;2023-09-08T04:35:32;101950.54;;;14.65;73.70
77019;BME280;66044;53.142;17.962;2023-09-08T04:37:58;101952.81;;;14.69;73.65
77019;BME280;66044;53.142;17.962;2023-09-08T04:40:25;101950.70;;;14.76;73.46
77019;BME280;66044;53.142;17.962;2023-09-08T04:42:51;101954.44;;;14.82;73.31
77019;BME280;66044;53.142;17.962;2023-09-08T04:45:18;101952.86;;;14.89;73.33
77019;BME280;66044;53.142;17.962;2023-09-08T04:47:44;101956.41;;;14.96;73.02
77019;BME280;66044;53.142;17.962;2023-09-08T04:50:13;101957.70;;;15.02;73.12
77019;BME280;66044;53.142;17.962;2023-09-08T04:52:39;101958.37;;;15.10;73.02
77019;BME280;66044;53.142;17.962;2023-09-08T04:55:06;101959.86;;;15.18;72.66
77019;BME280;66044;53.142;17.962;2023-09-08T04:57:33;101957.65;;;15.27;72.55
77019;BME280;66044;53.142;17.962;2023-09-08T05:00:00;101961.02;;;15.37;72.53
77019;BME280;66044;53.142;17.962;2023-09-08T05:02:26;101961.53;;;15.50;72.57
77019;BME280;66044;53.142;17.962;2023-09-08T05:04:53;101963.52;;;15.62;72.07
77019;BME280;66044;53.142;17.962;2023-09-08T05:07:19;101963.66;;;15.76;72.05
77019;BME280;66044;53.142;17.962;2023-09-08T05:09:46;101959.58;;;15.91;71.89
77019;BME280;66044;53.142;17.962;2023-09-08T05:12:12;101962.17;;;16.06;71.75
77019;BME280;66044;53.142;17.962;2023-09-08T05:14:39;101962.80;;;16.23;71.53
77019;BME280;66044;53.142;17.962;2023-09-08T05:17:08;101966.41;;;16.41;71.11
77019;BME280;66044;53.142;17.962;2023-09-08T05:19:34;101965.44;;;16.62;71.04
77019;BME280;66044;53.142;17.962;2023-09-08T05:22:01;101968.31;;;16.84;70.51
77019;BME280;66044;53.142;17.962;2023-09-08T05:24:30;101968.20;;;17.23;70.00
77019;BME280;66044;53.142;17.962;2023-09-08T05:26:56;101968.52;;;18.30;68.44
77019;BME280;66044;53.142;17.962;2023-09-08T05:29:23;101975.27;;;19.75;66.51
77019;BME280;66044;53.142;17.962;2023-09-08T05:31:49;101976.16;;;20.88;64.66
77019;BME280;66044;53.142;17.962;2023-09-08T05:34:16;101981.66;;;22.07;62.50
77019;BME280;66044;53.142;17.962;2023-09-08T05:36:43;101984.84;;;23.31;60.36
77019;BME280;66044;53.142;17.962;2023-09-08T05:39:09;101983.32;;;24.65;57.76
77019;BME280;66044;53.142;17.962;2023-09-08T05:41:36;101988.87;;;25.92;55.19
77019;BME280;66044;53.142;17.962;2023-09-08T05:44:03;101992.77;;;27.04;52.96
77019;BME280;66044;53.142;17.962;2023-09-08T05:46:30;101992.67;;;27.75;51.31
77019;BME280;66044;53.142;17.962;2023-09-08T05:48:57;101998.05;;;28.73;49.10
77019;BME280;66044;53.142;17.962;2023-09-08T05:51:23;101998.98;;;29.78;47.08
77019;BME280;66044;53.142;17.962;2023-09-08T05:53:50;102004.60;;;30.75;45.44
77019;BME280;66044;53.142;17.962;2023-09-08T05:56:18;102008.08;;;31.72;43.56
77019;BME280;66044;53.142;17.962;2023-09-08T05:58:45;102007.58;;;32.70;41.85
77019;BME280;66044;53.142;17.962;2023-09-08T06:01:11;102006.95;;;33.56;40.18
77019;BME280;66044;53.142;17.962;2023-09-08T06:03:37;102008.13;;;33.88;39.08
77019;BME280;66044;53.142;17.962;2023-09-08T06:06:04;102009.13;;;34.20;38.07
77019;BME280;66044;53.142;17.962;2023-09-08T06:08:31;102009.61;;;34.91;37.11
77019;BME280;66044;53.142;17.962;2023-09-08T06:10:57;102008.98;;;35.80;35.95
77019;BME280;66044;53.142;17.962;2023-09-08T06:13:23;102006.71;;;36.62;34.51
77019;BME280;66044;53.142;17.962;2023-09-08T06:15:51;102003.02;;;37.39;33.28
77019;BME280;66044;53.142;17.962;2023-09-08T06:18:17;102000.98;;;38.17;32.04
77019;BME280;66044;53.142;17.962;2023-09-08T06:20:47;101999.23;;;38.88;31.05
77019;BME280;66044;53.142;17.962;2023-09-08T06:23:14;102000.89;;;39.58;29.91
77019;BME280;66044;53.142;17.962;2023-09-08T06:25:41;102001.08;;;40.24;29.08
77019;BME280;66044;53.142;17.962;2023-09-08T06:28:07;102002.05;;;40.81;28.45
77019;BME280;66044;53.142;17.962;2023-09-08T06:30:34;101992.19;;;41.42;27.42
77019;BME280;66044;53.142;17.962;2023-09-08T06:33:00;101991.23;;;41.88;26.77
77019;BME280;66044;53.142;17.962;2023-09-08T06:35:27;101989.95;;;42.44;25.88
77019;BME280;66044;53.142;17.962;2023-09-08T06:37:54;101992.03;;;43.01;25.46
77019;BME280;66044;53.142;17.962;2023-09-08T06:40:20;101991.81;;;43.57;24.42
77019;BME280;66044;53.142;17.962;2023-09-08T06:42:47;101996.02;;;44.10;23.68
77019;BME280;66044;53.142;17.962;2023-09-08T06:45:14;101995.19;;;44.61;23.02
77019;BME280;66044;53.142;17.962;2023-09-08T06:47:41;101997.05;;;45.11;22.33
77019;BME280;66044;53.142;17.962;2023-09-08T06:50:08;102000.86;;;45.57;21.98
77019;BME280;66044;53.142;17.962;2023-09-08T06:52:36;101993.50;;;46.02;21.33
77019;BME280;66044;53.142;17.962;2023-09-08T06:55:02;101989.26;;;46.39;21.03
77019;BME280;66044;53.142;17.962;2023-09-08T06:57:29;101992.98;;;46.88;20.50
77019;BME280;66044;53.142;17.962;2023-09-08T06:59:55;101988.13;;;47.18;19.82
77019;BME280;66044;53.142;17.962;2023-09-08T07:02:22;101986.09;;;47.37;19.66
77019;BME280;66044;53.142;17.962;2023-09-08T07:04:48;101987.12;;;47.63;19.26
77019;BME280;66044;53.142;17.962;2023-09-08T07:07:15;101987.09;;;48.10;18.79
77019;BME280;66044;53.142;17.962;2023-09-08T07:09:41;101980.27;;;48.57;18.33
77019;BME280;66044;53.142;17.962;2023-09-08T07:12:08;101982.02;;;48.93;17.75
77019;BME280;66044;53.142;17.962;2023-09-08T07:14:34;101977.84;;;49.16;17.57
77019;BME280;66044;53.142;17.962;2023-09-08T07:17:01;101976.02;;;49.48;17.15
77019;BME280;66044;53.142;17.962;2023-09-08T07:19:27;101978.44;;;49.82;16.74
77019;BME280;66044;53.142;17.962;2023-09-08T07:21:54;101975.55;;;50.28;16.53
77019;BME280;66044;53.142;17.962;2023-09-08T07:24:20;101973.52;;;50.74;16.50
77019;BME280;66044;53.142;17.962;2023-09-08T07:26:47;101973.27;;;51.26;16.15
77019;BME280;66044;53.142;17.962;2023-09-08T07:29:14;101969.44;;;51.68;15.46
77019;BME280;66044;53.142;17.962;2023-09-08T07:31:41;101971.98;;;51.99;15.25
77019;BME280;66044;53.142;17.962;2023-09-08T07:34:07;101970.47;;;52.24;14.74
77019;BME280;66044;53.142;17.962;2023-09-08T07:36:36;101966.86;;;52.43;14.47
77019;BME280;66044;53.142;17.962;2023-09-08T07:39:03;101968.41;;;52.58;14.47
77019;BME280;66044;53.142;17.962;2023-09-08T07:41:29;101971.30;;;52.94;14.51
77019;BME280;66044;53.142;17.962;2023-09-08T07:43:56;101969.02;;;53.37;14.07
77019;BME280;66044;53.142;17.962;2023-09-08T07:46:22;101972.52;;;53.67;13.72
77019;BME280;66044;53.142;17.962;2023-09-08T07:48:49;101968.98;;;53.97;13.22
77019;BME280;66044;53.142;17.962;2023-09-08T07:51:16;101966.01;;;54.16;13.11
77019;BME280;66044;53.142;17.962;2023-09-08T07:53:42;101966.88;;;54.45;12.94
77019;BME280;66044;53.142;17.962;2023-09-08T07:56:09;101961.20;;;54.82;12.67
77019;BME280;66044;53.142;17.962;2023-09-08T07:58:36;101963.23;;;55.22;12.58
77019;BME280;66044;53.142;17.962;2023-09-08T08:01:03;101959.27;;;55.65;12.53
77019;BME280;66044;53.142;17.962;2023-09-08T08:03:29;101956.77;;;55.73;12.08
77019;BME280;66044;53.142;17.962;2023-09-08T08:05:59;101956.07;;;55.67;11.83
77019;BME280;66044;53.142;17.962;2023-09-08T08:08:25;101952.14;;;55.44;11.59
77019;BME280;66044;53.142;17.962;2023-09-08T08:10:52;101950.27;;;55.12;11.78
77019;BME280;66044;53.142;17.962;2023-09-08T08:13:18;101946.94;;;54.78;11.26
77019;BME280;66044;53.142;17.962;2023-09-08T08:15:45;101937.24;;;53.80;11.38
77019;BME280;66044;53.142;17.962;2023-09-08T08:18:15;101935.29;;;52.98;11.96
77019;BME280;66044;53.142;17.962;2023-09-08T08:20:42;101929.59;;;52.71;12.10
77019;BME280;66044;53.142;17.962;2023-09-08T08:23:09;101927.29;;;52.59;12.32
77019;BME280;66044;53.142;17.962;2023-09-08T08:25:35;101923.53;;;52.48;12.26
77019;BME280;66044;53.142;17.962;2023-09-08T08:28:02;101919.70;;;52.12;12.63
77019;BME280;66044;53.142;17.962;2023-09-08T08:30:29;101916.38;;;51.49;12.99
77019;BME280;66044;53.142;17.962;2023-09-08T08:32:56;101915.35;;;50.32;13.42
77019;BME280;66044;53.142;17.962;2023-09-08T08:35:22;101906.54;;;48.67;14.53
77019;BME280;66044;53.142;17.962;2023-09-08T08:37:49;101895.89;;;46.57;15.42
77019;BME280;66044;53.142;17.962;2023-09-08T08:40:16;101889.23;;;43.62;17.42
77019;BME280;66044;53.142;17.962;2023-09-08T08:42:42;101878.69;;;41.65;19.10
77019;BME280;66044;53.142;17.962;2023-09-08T08:45:10;101875.08;;;40.78;20.18
77019;BME280;66044;53.142;17.962;2023-09-08T08:47:39;101870.36;;;40.05;20.59
77019;BME280;66044;53.142;17.962;2023-09-08T08:50:08;101870.86;;;38.97;21.37
77019;BME280;66044;53.142;17.962;2023-09-08T08:52:38;101865.45;;;38.10;22.58
77019;BME280;66044;53.142;17.962;2023-09-08T08:55:06;101860.44;;;37.34;23.65
77019;BME280;66044;53.142;17.962;2023-09-08T08:57:34;101858.04;;;36.79;23.97
77019;BME280;66044;53.142;17.962;2023-09-08T09:00:03;101856.73;;;36.16;24.87
77019;BME280;66044;53.142;17.962;2023-09-08T09:02:38;101854.05;;;35.57;25.48
77019;BME280;66044;53.142;17.962;2023-09-08T09:05:10;101858.59;;;34.93;25.88
77019;BME280;66044;53.142;17.962;2023-09-08T09:07:38;101857.48;;;34.62;26.29
77019;BME280;66044;53.142;17.962;2023-09-08T09:10:06;101854.67;;;34.39;26.28
77019;BME280;66044;53.142;17.962;2023-09-08T09:12:36;101852.52;;;34.11;26.81
77019;BME280;66044;53.142;17.962;2023-09-08T09:15:04;101855.27;;;33.80;27.18
77019;BME280;66044;53.142;17.962;2023-09-08T09:17:34;101846.47;;;33.52;27.57
77019;BME280;66044;53.142;17.962;2023-09-08T09:20:18;101851.14;;;33.17;27.70
77019;BME280;66044;53.142;17.962;2023-09-08T09:22:49;101848.54;;;32.91;28.17
77019;BME280;66044;53.142;17.962;2023-09-08T09:25:22;101849.34;;;32.70;28.53
77019;BME280;66044;53.142;17.962;2023-09-08T09:27:54;101842.05;;;32.52;28.97
77019;BME280;66044;53.142;17.962;2023-09-08T09:30:22;101841.66;;;32.31;29.12
77019;BME280;66044;53.142;17.962;2023-09-08T09:32:59;101841.66;;;32.15;29.05
77019;BME280;66044;53.142;17.962;2023-09-08T09:38:14;101838.61;;;32.06;29.86
77019;BME280;66044;53.142;17.962;2023-09-08T09:40:40;101832.02;;;31.81;29.28
77019;BME280;66044;53.142;17.962;2023-09-08T09:43:08;101831.85;;;31.49;29.62
77019;BME280;66044;53.142;17.962;2023-09-08T09:45:35;101831.89;;;31.29;29.77
77019;BME280;66044;53.142;17.962;2023-09-08T09:48:04;101827.57;;;31.16;30.28
77019;BME280;66044;53.142;17.962;2023-09-08T09:50:32;101826.73;;;31.15;30.69
77019;BME280;66044;53.142;17.962;2023-09-08T09:53:07;101828.42;;;31.14;30.57
77019;BME280;66044;53.142;17.962;2023-09-08T09:55:36;101824.71;;;31.13;31.34
77019;BME280;66044;53.142;17.962;2023-09-08T09:58:04;101819.06;;;31.12;30.95
77019;BME280;66044;53.142;17.962;2023-09-08T10:00:32;101823.27;;;31.05;31.19
77019;BME280;66044;53.142;17.962;2023-09-08T10:02:59;101819.66;;;30.61;31.12
77019;BME280;66044;53.142;17.962;2023-09-08T10:05:27;101815.41;;;30.26;31.97
77019;BME280;66044;53.142;17.962;2023-09-08T10:07:53;101816.90;;;30.17;32.19
77019;BME280;66044;53.142;17.962;2023-09-08T10:10:21;101817.22;;;30.06;32.36
77019;BME280;66044;53.142;17.962;2023-09-08T10:13:02;101816.73;;;30.04;32.47
77019;BME280;66044;53.142;17.962;2023-09-08T10:15:30;101809.40;;;29.99;32.46
77019;BME280;66044;53.142;17.962;2023-09-08T10:17:57;101808.89;;;29.89;32.65
77019;BME280;66044;53.142;17.962;2023-09-08T10:20:27;101807.27;;;29.87;33.20
77019;BME280;66044;53.142;17.962;2023-09-08T10:23:12;101805.05;;;29.91;33.01
77019;BME280;66044;53.142;17.962;2023-09-08T10:25:47;101803.73;;;29.93;32.90
77019;BME280;66044;53.142;17.962;2023-09-08T10:28:21;101804.58;;;29.91;33.28
77019;BME280;66044;53.142;17.962;2023-09-08T10:30:49;101800.22;;;29.87;32.85
77019;BME280;66044;53.142;17.962;2023-09-08T10:33:16;101800.21;;;29.78;32.46
77019;BME280;66044;53.142;17.962;2023-09-08T10:35:44;101800.70;;;29.59;32.80
77019;BME280;66044;53.142;17.962;2023-09-08T10:38:29;101798.64;;;29.28;32.98
77019;BME280;66044;53.142;17.962;2023-09-08T10:43:57;101796.13;;;28.96;33.18
77019;BME280;66044;53.142;17.962;2023-09-08T10:46:29;101794.91;;;28.85;33.45
77019;BME280;66044;53.142;17.962;2023-09-08T10:49:06;101791.63;;;28.87;33.82
77019;BME280;66044;53.142;17.962;2023-09-08T10:51:34;101789.84;;;28.86;33.64
77019;BME280;66044;53.142;17.962;2023-09-08T10:54:01;101785.79;;;28.78;33.62
77019;BME280;66044;53.142;17.962;2023-09-08T10:56:31;101781.38;;;28.68;33.72
77019;BME280;66044;53.142;17.962;2023-09-08T10:59:14;101778.18;;;28.62;33.78
77019;BME280;66044;53.142;17.962;2023-09-08T11:01:41;101779.70;;;28.56;33.74
77019;BME280;66044;53.142;17.962;2023-09-08T11:04:09;101779.31;;;28.51;34.17
77019;BME280;66044;53.142;17.962;2023-09-08T11:06:37;101774.67;;;28.45;34.17
77019;BME280;66044;53.142;17.962;2023-09-08T11:09:07;101773.94;;;28.42;34.45
77019;BME280;66044;53.142;17.962;2023-09-08T11:11:35;101773.78;;;28.37;34.49
77019;BME280;66044;53.142;17.962;2023-09-08T11:14:03;101772.52;;;28.28;34.77
77019;BME280;66044;53.142;17.962;2023-09-08T11:16:30;101769.54;;;28.22;34.78
77019;BME280;66044;53.142;17.962;2023-09-08T11:18:59;101769.41;;;28.20;34.89
77019;BME280;66044;53.142;17.962;2023-09-08T11:21:27;101769.04;;;28.20;34.66
77019;BME280;66044;53.142;17.962;2023-09-08T11:24:04;101764.40;;;28.23;34.80
77019;BME280;66044;53.142;17.962;2023-09-08T11:26:34;101759.46;;;28.26;34.66
77019;BME280;66044;53.142;17.962;2023-09-08T11:29:01;101760.55;;;28.22;34.45
77019;BME280;66044;53.142;17.962;2023-09-08T11:31:27;101761.02;;;28.15;34.83
77019;BME280;66044;53.142;17.962;2023-09-08T11:33:55;101758.52;;;28.15;34.83
77019;BME280;66044;53.142;17.962;2023-09-08T11:36:21;101752.83;;;28.14;34.95
77019;BME280;66044;53.142;17.962;2023-09-08T11:38:48;101755.03;;;28.10;34.92
77019;BME280;66044;53.142;17.962;2023-09-08T11:41:16;101757.23;;;28.05;34.99
77019;BME280;66044;53.142;17.962;2023-09-08T11:43:43;101758.35;;;28.00;35.28
77019;BME280;66044;53.142;17.962;2023-09-08T11:46:10;101759.31;;;27.98;35.28
77019;BME280;66044;53.142;17.962;2023-09-08T11:48:37;101756.77;;;27.96;35.28
77019;BME280;66044;53.142;17.962;2023-09-08T11:51:06;101755.54;;;27.97;35.59
77019;BME280;66044;53.142;17.962;2023-09-08T11:53:33;101748.63;;;28.00;35.85
77019;BME280;66044;53.142;17.962;2023-09-08T11:56:01;101745.96;;;28.04;35.90
77019;BME280;66044;53.142;17.962;2023-09-08T11:58:28;101741.08;;;28.08;36.09
77019;BME280;66044;53.142;17.962;2023-09-08T12:00:54;101739.82;;;28.13;36.21
77019;BME280;66044;53.142;17.962;2023-09-08T12:03:21;101737.81;;;28.17;35.93
77019;BME280;66044;53.142;17.962;2023-09-08T12:05:51;101738.55;;;28.20;35.85
77019;BME280;66044;53.142;17.962;2023-09-08T12:08:18;101736.14;;;28.22;35.78
77019;BME280;66044;53.142;17.962;2023-09-08T12:10:44;101732.09;;;28.24;35.62
77019;BME280;66044;53.142;17.962;2023-09-08T12:13:11;101731.29;;;28.25;35.92
77019;BME280;66044;53.142;17.962;2023-09-08T12:15:41;101732.70;;;28.25;35.95
77019;BME280;66044;53.142;17.962;2023-09-08T12:18:10;101732.19;;;28.23;35.76
77019;BME280;66044;53.142;17.962;2023-09-08T12:20:38;101731.63;;;28.23;35.81
77019;BME280;66044;53.142;17.962;2023-09-08T12:23:14;101723.11;;;28.22;35.39
77019;BME280;66044;53.142;17.962;2023-09-08T12:25:49;101716.41;;;28.17;35.09
77019;BME280;66044;53.142;17.962;2023-09-08T12:28:17;101717.31;;;28.12;35.07
77019;BME280;66044;53.142;17.962;2023-09-08T12:30:45;101714.27;;;28.11;35.30
77019;BME280;66044;53.142;17.962;2023-09-08T12:33:16;101716.70;;;28.12;35.18
77019;BME280;66044;53.142;17.962;2023-09-08T12:35:46;101710.05;;;28.14;35.33
77019;BME280;66044;53.142;17.962;2023-09-08T12:38:19;101710.80;;;28.18;35.29
77019;BME280;66044;53.142;17.962;2023-09-08T12:40:45;101709.85;;;28.18;34.96
77019;BME280;66044;53.142;17.962;2023-09-08T12:43:12;101706.45;;;28.22;35.02
77019;BME280;66044;53.142;17.962;2023-09-08T12:45:38;101707.05;;;28.24;35.21
77019;BME280;66044;53.142;17.962;2023-09-08T12:48:06;101704.92;;;28.24;34.79